Time;durP1;ratioP1;P1;durP2;ratioP2;P2;SDS_P1;SDS_P2;PMS_P1;PMS_P2;Temp;Humidity;BMP_temperature;BMP_pressure;BME280_temperature;BME280_humidity;BME280_pressure;Samples;Min_cycle;Max_cycle;Signal;HPM_P1;HPM_P2
2022/07/03 00:02:07;;;;;;;3.92;1.83;;;18.30;99.90;;;;;;5064880;28;20127;-64
2022/07/03 00:04:33;;;;;;;2.97;1.90;;;18.20;99.90;;;;;;5067344;28;20041;-64
2022/07/03 00:06:58;;;;;;;2.30;2.10;;;18.20;99.90;;;;;;5067144;28;20056;-64
2022/07/03 00:09:24;;;;;;;5.18;2.38;;;18.10;99.90;;;;;;5064480;28;20566;-64
2022/07/03 00:11:50;;;;;;;3.53;2.47;;;18.10;99.90;;;;;;5066941;28;20124;-64
2022/07/03 00:14:16;;;;;;;4.22;2.30;;;18.00;99.90;;;;;;5065384;28;20482;-64
2022/07/03 00:16:42;;;;;;;3.10;2.03;;;18.00;99.90;;;;;;5066783;28;20041;-65
2022/07/03 00:19:07;;;;;;;5.18;2.45;;;18.00;99.90;;;;;;5066458;28;20052;-64
2022/07/03 00:21:46;;;;;;;4.40;2.20;;;18.00;99.90;;;;;;5066822;28;20078;-64
2022/07/03 00:24:26;;;;;;;4.88;2.30;;;18.20;99.90;;;;;;5066847;28;20415;-64
2022/07/03 00:26:53;;;;;;;2.28;2.08;;;17.90;99.90;;;;;;5066501;28;20040;-65
2022/07/03 00:29:23;;;;;;;3.65;2.40;;;17.90;99.90;;;;;;5066554;28;20052;-64
2022/07/03 00:31:49;;;;;;;3.13;2.40;;;17.90;99.90;;;;;;5065850;28;20453;-64
2022/07/03 00:34:18;;;;;;;4.57;2.20;;;17.90;99.90;;;;;;5065878;28;20086;-64
2022/07/03 00:36:47;;;;;;;2.30;2.10;;;17.80;99.90;;;;;;5067011;28;20537;-65
2022/07/03 00:39:13;;;;;;;2.88;2.08;;;17.80;99.90;;;;;;5065433;28;20082;-64
2022/07/03 00:41:42;;;;;;;3.35;2.10;;;17.70;99.90;;;;;;5066140;28;20484;-64
2022/07/03 00:44:08;;;;;;;5.13;2.67;;;17.70;99.90;;;;;;5064700;28;20526;-64
2022/07/03 00:46:38;;;;;;;3.60;2.38;;;17.70;99.90;;;;;;5065803;28;20041;-64
2022/07/03 00:49:05;;;;;;;3.30;2.30;;;17.70;99.90;;;;;;5066021;28;20101;-65
2022/07/03 00:51:34;;;;;;;2.80;2.35;;;17.60;99.90;;;;;;5065753;28;20116;-64
2022/07/03 00:54:01;;;;;;;5.00;2.42;;;17.60;99.90;;;;;;5065843;28;20145;-65
2022/07/03 00:56:31;;;;;;;3.28;2.58;;;17.60;99.90;;;;;;5065942;28;20045;-64
2022/07/03 00:58:59;;;;;;;4.82;2.20;;;17.60;99.90;;;;;;5065036;28;20059;-64
2022/07/03 01:01:30;;;;;;;3.28;2.33;;;17.50;99.90;;;;;;5066291;28;20052;-64
2022/07/03 01:04:50;;;;;;;2.40;2.20;;;17.50;99.90;;;;;;5066153;28;20048;-64
2022/07/03 01:07:49;;;;;;;2.97;2.40;;;17.50;99.90;;;;;;5002883;28;20079;-64
2022/07/03 01:10:32;;;;;;;3.22;2.05;;;17.40;99.90;;;;;;5026981;28;20065;-64
2022/07/03 01:13:13;;;;;;;2.38;2.17;;;17.40;99.90;;;;;;5065090;28;20499;-64
2022/07/03 01:16:09;;;;;;;2.70;2.40;;;17.50;99.90;;;;;;5066056;28;20552;-64
2022/07/03 01:18:49;;;;;;;6.10;2.40;;;17.40;99.90;;;;;;5065930;28;20349;-64
2022/07/03 01:21:30;;;;;;;4.43;2.60;;;17.40;99.90;;;;;;5065623;28;20060;-64
2022/07/03 01:24:21;;;;;;;5.72;2.58;;;17.40;99.90;;;;;;5065928;28;20049;-65
2022/07/03 01:26:50;;;;;;;3.42;2.63;;;17.20;99.90;;;;;;5065089;28;20113;-64
2022/07/03 01:29:25;;;;;;;4.38;2.38;;;17.10;99.90;;;;;;5065935;28;20384;-64
2022/07/03 01:31:54;;;;;;;5.15;2.85;;;17.10;99.90;;;;;;5065272;28;20048;-64
2022/07/03 01:34:21;;;;;;;6.90;3.17;;;17.10;99.90;;;;;;5065101;28;20550;-65
2022/07/03 01:36:48;;;;;;;3.05;2.47;;;17.00;99.90;;;;;;5065534;28;20086;-64
2022/07/03 01:39:17;;;;;;;2.92;2.70;;;17.00;99.90;;;;;;5064875;28;20131;-64
2022/07/03 01:41:47;;;;;;;3.55;2.55;;;17.00;99.90;;;;;;5064237;28;20052;-65
2022/07/03 01:44:16;;;;;;;6.88;2.75;;;17.00;99.90;;;;;;5066083;28;20047;-64
2022/07/03 01:46:45;;;;;;;2.90;2.70;;;17.00;99.90;;;;;;5066031;28;20419;-65
2022/07/03 01:49:14;;;;;;;2.95;2.75;;;16.90;99.90;;;;;;5064076;28;20135;-65
2022/07/03 01:51:41;;;;;;;3.05;2.72;;;16.80;99.90;;;;;;5065440;28;20118;-64
2022/07/03 01:54:10;;;;;;;3.72;3.20;;;16.80;99.90;;;;;;5065378;28;20040;-64
2022/07/03 01:56:35;;;;;;;4.35;2.80;;;16.70;99.90;;;;;;5064552;28;20275;-64
2022/07/03 01:59:02;;;;;;;5.30;3.42;;;16.60;99.90;;;;;;5064850;28;20503;-65
2022/07/03 02:01:40;;;;;;;3.20;2.90;;;16.60;99.90;;;;;;5065686;28;20410;-64
2022/07/03 02:04:22;;;;;;;3.10;2.40;;;16.60;99.90;;;;;;5065414;28;20217;-64
2022/07/03 02:07:20;;;;;;;3.17;2.97;;;16.50;99.90;;;;;;5065058;28;20495;-64
2022/07/03 02:10:06;;;;;;;5.13;2.92;;;16.40;99.90;;;;;;5039849;28;20060;-64
2022/07/03 02:12:53;;;;;;;2.63;2.40;;;16.40;99.90;;;;;;5065569;28;20056;-64
2022/07/03 02:15:30;;;;;;;5.57;3.17;;;16.30;99.90;;;;;;5065213;28;20065;-64
2022/07/03 02:18:00;;;;;;;8.80;3.22;;;16.30;99.90;;;;;;5064330;28;20553;-65
2022/07/03 02:20:28;;;;;;;3.05;2.78;;;16.20;99.90;;;;;;5065195;28;20056;-64
2022/07/03 02:22:59;;;;;;;3.22;2.92;;;16.10;99.90;;;;;;5067045;28;20041;-64
2022/07/03 02:25:34;;;;;;;2.97;2.72;;;16.10;99.90;;;;;;5067817;28;20487;-64
2022/07/03 02:28:24;;;;;;;4.35;3.28;;;16.00;99.90;;;;;;5068523;28;20406;-64
2022/07/03 02:30:55;;;;;;;5.80;2.95;;;16.00;99.90;;;;;;5068244;28;20053;-64
2022/07/03 02:33:25;;;;;;;3.63;3.30;;;16.00;99.90;;;;;;5068968;28;20404;-64
2022/07/03 02:35:54;;;;;;;3.13;2.83;;;15.90;99.90;;;;;;5068659;28;20499;-64
2022/07/03 02:38:21;;;;;;;2.85;2.60;;;15.90;99.90;;;;;;5068188;28;20044;-64
2022/07/03 02:41:12;;;;;;;4.10;3.13;;;15.90;99.90;;;;;;5068649;28;20044;-64
2022/07/03 02:43:46;;;;;;;3.50;3.25;;;15.80;99.90;;;;;;5069092;28;20084;-64
2022/07/03 02:46:50;;;;;;;3.63;2.97;;;15.80;99.90;;;;;;5068667;28;20542;-64
2022/07/03 02:49:24;;;;;;;3.08;2.78;;;15.80;99.90;;;;;;5069173;28;20052;-64
2022/07/03 02:52:12;;;;;;;3.05;2.75;;;15.80;99.90;;;;;;5067727;28;20048;-64
2022/07/03 02:54:50;;;;;;;5.25;3.40;;;15.80;99.90;;;;;;5068543;28;20040;-64
2022/07/03 02:57:20;;;;;;;4.75;4.10;;;15.70;99.90;;;;;;5068443;28;20040;-64
2022/07/03 02:59:49;;;;;;;3.70;3.40;;;15.70;99.90;;;;;;5068230;28;20056;-64
2022/07/03 03:02:22;;;;;;;3.83;3.30;;;15.70;99.90;;;;;;5068143;28;20391;-64
2022/07/03 03:05:01;;;;;;;3.55;3.13;;;15.70;99.90;;;;;;5067080;28;20060;-64
2022/07/03 03:07:34;;;;;;;3.80;3.30;;;15.70;99.90;;;;;;5068197;28;20081;-64
2022/07/03 03:09:59;;;;;;;3.25;3.05;;;15.60;99.90;;;;;;5068002;28;20419;-64
2022/07/03 03:12:31;;;;;;;3.58;3.28;;;15.50;99.90;;;;;;5067617;28;20044;-64
2022/07/03 03:15:02;;;;;;;3.65;3.30;;;15.50;99.90;;;;;;5067841;28;20562;-64
2022/07/03 03:17:36;;;;;;;3.53;3.25;;;15.60;99.90;;;;;;5068263;28;20067;-64
2022/07/03 03:20:02;;;;;;;4.50;3.53;;;15.50;99.90;;;;;;5065589;28;20052;-64
2022/07/03 03:22:58;;;;;;;4.75;3.13;;;15.40;99.90;;;;;;5068168;28;20047;-64
2022/07/03 03:25:24;;;;;;;8.48;3.60;;;15.40;99.90;;;;;;5068144;28;20040;-64
2022/07/03 03:27:50;;;;;;;7.03;3.85;;;15.50;99.90;;;;;;5067077;28;20086;-64
2022/07/03 03:30:16;;;;;;;3.85;3.55;;;15.40;99.90;;;;;;5068250;28;20044;-64
2022/07/03 03:32:42;;;;;;;3.80;3.50;;;15.50;99.90;;;;;;5067857;28;20115;-64
2022/07/03 03:35:08;;;;;;;3.38;3.10;;;15.50;99.90;;;;;;5066102;28;20037;-64
2022/07/03 03:37:34;;;;;;;3.83;3.45;;;15.50;99.90;;;;;;5067735;28;20040;-64
2022/07/03 03:40:02;;;;;;;6.28;4.63;;;15.60;99.90;;;;;;5067783;28;20045;-64
2022/07/03 03:42:28;;;;;;;4.38;4.05;;;15.60;99.90;;;;;;5066787;28;20087;-64
2022/07/03 03:44:53;;;;;;;4.70;3.65;;;15.50;99.90;;;;;;5067862;28;20041;-64
2022/07/03 03:47:19;;;;;;;3.85;3.53;;;15.50;99.90;;;;;;5066631;28;20076;-64
2022/07/03 03:49:46;;;;;;;3.70;3.40;;;15.50;99.90;;;;;;5068126;28;20414;-65
2022/07/03 03:52:11;;;;;;;4.05;3.65;;;15.60;99.90;;;;;;5068265;28;20051;-64
2022/07/03 03:54:37;;;;;;;4.00;3.70;;;15.50;99.90;;;;;;5066383;28;20041;-65
2022/07/03 03:57:20;;;;;;;3.88;3.40;;;15.50;99.90;;;;;;5065915;28;20603;-64
2022/07/03 03:59:47;;;;;;;4.35;3.95;;;15.50;99.90;;;;;;5067933;28;20044;-64
2022/07/03 04:02:13;;;;;;;3.80;3.50;;;15.40;99.90;;;;;;5067154;28;20511;-64
2022/07/03 04:04:39;;;;;;;5.97;3.90;;;15.30;99.90;;;;;;5067289;28;20131;-64
2022/07/03 04:07:04;;;;;;;5.75;3.92;;;15.30;99.90;;;;;;5066887;28;20053;-64
2022/07/03 04:09:30;;;;;;;6.00;4.25;;;15.30;99.90;;;;;;5066171;28;20090;-64
2022/07/03 04:11:56;;;;;;;7.65;4.25;;;15.30;99.90;;;;;;5066884;28;20040;-64
2022/07/03 04:14:22;;;;;;;5.15;4.15;;;15.30;99.90;;;;;;5065729;28;20147;-64
2022/07/03 04:16:48;;;;;;;4.78;4.38;;;15.30;99.90;;;;;;5066305;28;20115;-64
2022/07/03 04:19:13;;;;;;;4.80;4.07;;;15.30;99.90;;;;;;5067534;28;20048;-64
2022/07/03 04:21:39;;;;;;;4.30;3.83;;;15.40;99.90;;;;;;5066814;28;20587;-64
2022/07/03 04:24:05;;;;;;;3.90;3.60;;;15.40;99.90;;;;;;5065976;28;20092;-64
2022/07/03 04:26:30;;;;;;;7.40;4.05;;;15.50;99.90;;;;;;5066726;28;20415;-64
2022/07/03 04:28:56;;;;;;;5.10;4.60;;;15.50;99.90;;;;;;5066388;28;20056;-64
2022/07/03 04:31:21;;;;;;;5.85;5.22;;;15.50;99.90;;;;;;5066172;28;20048;-64
2022/07/03 04:33:47;;;;;;;4.85;4.50;;;15.60;99.90;;;;;;5066304;28;20395;-64
2022/07/03 04:36:13;;;;;;;5.20;4.45;;;15.60;99.90;;;;;;5065969;28;20102;-64
2022/07/03 04:38:38;;;;;;;8.98;4.53;;;15.60;99.90;;;;;;5065827;28;20086;-64
2022/07/03 04:41:04;;;;;;;7.20;5.10;;;15.60;99.90;;;;;;5065010;28;20106;-64
2022/07/03 04:43:29;;;;;;;4.35;3.95;;;15.70;99.90;;;;;;5065521;28;20079;-64
2022/07/03 04:45:55;;;;;;;5.15;4.65;;;15.80;99.90;;;;;;5066083;28;20040;-65
2022/07/03 04:48:20;;;;;;;5.53;4.00;;;15.80;99.90;;;;;;5066636;28;20106;-64
2022/07/03 04:50:46;;;;;;;5.63;4.40;;;15.90;99.90;;;;;;5065373;28;20055;-64
2022/07/03 04:53:12;;;;;;;7.22;4.72;;;16.00;99.90;;;;;;5066961;28;20614;-64
2022/07/03 04:55:37;;;;;;;5.35;4.30;;;16.10;99.90;;;;;;5066194;28;20044;-64
2022/07/03 04:58:03;;;;;;;7.40;4.88;;;16.10;99.90;;;;;;5064850;28;20097;-65
2022/07/03 05:00:29;;;;;;;6.90;4.43;;;16.20;99.90;;;;;;5066422;28;20419;-64
2022/07/03 05:02:54;;;;;;;5.65;4.63;;;16.30;99.90;;;;;;5065927;28;20063;-64
2022/07/03 05:05:21;;;;;;;8.18;4.57;;;16.40;99.90;;;;;;5065418;28;20399;-64
2022/07/03 05:07:47;;;;;;;4.78;4.10;;;16.50;99.90;;;;;;5065721;28;20093;-64
2022/07/03 05:10:12;;;;;;;4.35;3.97;;;16.60;99.90;;;;;;5066493;28;20541;-64
2022/07/03 05:12:38;;;;;;;4.07;3.75;;;16.70;99.90;;;;;;5063841;28;20075;-64
2022/07/03 05:15:04;;;;;;;5.93;4.45;;;16.80;99.90;;;;;;5065968;28;20407;-64
2022/07/03 05:17:29;;;;;;;3.90;3.55;;;16.90;99.90;;;;;;5065999;28;20403;-64
2022/07/03 05:22:39;;;;;;;3.58;3.28;;;17.10;99.90;;;;;;5065728;28;20411;-64
2022/07/03 05:25:06;;;;;;;3.85;3.40;;;17.20;99.90;;;;;;5065581;28;20208;-64
2022/07/03 05:27:34;;;;;;;3.67;3.38;;;17.20;99.90;;;;;;5065370;28;20036;-65
2022/07/03 05:30:00;;;;;;;3.53;3.22;;;17.30;99.90;;;;;;5066045;28;20543;-64
2022/07/03 05:32:25;;;;;;;4.35;3.08;;;17.40;99.90;;;;;;5065788;28;20079;-64
2022/07/03 05:34:51;;;;;;;4.55;3.10;;;17.40;99.90;;;;;;5064759;28;20472;-64
2022/07/03 05:37:16;;;;;;;3.03;2.72;;;17.40;99.90;;;;;;5081384;28;20047;-64
2022/07/03 05:39:42;;;;;;;3.58;3.03;;;17.50;99.90;;;;;;5065424;28;20089;-64
2022/07/03 05:42:08;;;;;;;3.53;3.22;;;17.50;99.90;;;;;;5065350;28;20392;-65
2022/07/03 05:44:33;;;;;;;3.65;3.08;;;17.50;99.90;;;;;;5065658;28;20124;-64
2022/07/03 05:46:59;;;;;;;3.05;2.55;;;17.60;99.90;;;;;;5064801;28;20048;-64
2022/07/03 05:49:24;;;;;;;3.92;2.83;;;17.60;99.90;;;;;;5065644;28;20040;-64
2022/07/03 05:51:50;;;;;;;3.05;2.35;;;17.60;99.90;;;;;;5065246;28;20044;-64
2022/07/03 05:54:16;;;;;;;2.58;2.30;;;17.60;99.90;;;;;;5064886;28;20448;-64
2022/07/03 05:56:41;;;;;;;4.00;2.70;;;17.70;99.90;;;;;;5067056;28;20430;-64
2022/07/03 05:59:07;;;;;;;3.33;2.42;;;17.80;99.90;;;;;;5069236;28;20067;-65
2022/07/03 06:01:33;;;;;;;3.55;2.60;;;17.90;99.90;;;;;;5068953;28;20048;-64
2022/07/03 06:03:58;;;;;;;2.70;2.15;;;17.90;99.90;;;;;;5067834;28;20534;-65
2022/07/03 06:06:24;;;;;;;4.95;2.88;;;18.00;99.90;;;;;;5069438;28;20052;-64
2022/07/03 06:08:49;;;;;;;2.30;2.10;;;18.00;99.90;;;;;;5067176;28;20056;-64
2022/07/03 06:11:15;;;;;;;2.47;2.00;;;18.10;99.90;;;;;;5070079;28;20044;-64
2022/07/03 06:13:41;;;;;;;5.05;2.13;;;18.20;99.90;;;;;;5069686;28;20044;-64
2022/07/03 06:16:07;;;;;;;2.92;1.90;;;18.20;99.90;;;;;;5068487;28;20081;-65
2022/07/03 06:18:32;;;;;;;2.40;1.85;;;18.50;99.90;;;;;;5069292;28;20484;-64
2022/07/03 06:20:58;;;;;;;5.13;2.30;;;18.30;99.90;;;;;;5068949;28;20054;-64
2022/07/03 06:23:23;;;;;;;1.67;1.38;;;18.20;99.90;;;;;;5068432;28;20119;-64
2022/07/03 06:25:49;;;;;;;2.17;1.60;;;18.20;99.90;;;;;;5067346;28;20320;-65
2022/07/03 06:28:15;;;;;;;3.22;1.70;;;18.30;99.90;;;;;;5068634;28;20055;-65
2022/07/03 06:30:41;;;;;;;2.63;1.85;;;18.20;99.90;;;;;;5068811;28;20491;-65
2022/07/03 06:33:07;;;;;;;2.20;1.52;;;18.20;99.90;;;;;;5068790;28;20267;-65
2022/07/03 06:35:32;;;;;;;1.23;1.13;;;18.30;99.90;;;;;;5068899;28;20095;-64
2022/07/03 06:38:02;;;;;;;3.15;1.80;;;18.40;99.90;;;;;;5068014;28;20045;-65
2022/07/03 06:40:28;;;;;;;3.90;1.98;;;18.40;99.90;;;;;;5068962;28;20044;-64
2022/07/03 06:42:53;;;;;;;2.88;1.65;;;18.50;99.90;;;;;;5068531;28;20545;-64
2022/07/03 06:45:19;;;;;;;3.20;1.13;;;18.50;99.90;;;;;;5067989;28;20040;-65
2022/07/03 06:47:44;;;;;;;2.60;1.15;;;18.50;99.90;;;;;;5069244;28;20044;-64
2022/07/03 06:50:12;;;;;;;1.70;1.15;;;18.40;99.90;;;;;;5068407;28;20045;-64
2022/07/03 06:52:37;;;;;;;2.10;1.45;;;18.30;99.90;;;;;;5067190;28;20040;-65
2022/07/03 06:55:04;;;;;;;2.80;1.42;;;18.30;99.90;;;;;;5068393;28;20067;-64
2022/07/03 06:57:29;;;;;;;6.60;1.55;;;18.30;99.90;;;;;;5067718;28;20045;-64
2022/07/03 06:59:55;;;;;;;3.80;1.65;;;18.30;99.90;;;;;;5068048;28;20090;-64
2022/07/03 07:02:21;;;;;;;2.33;1.40;;;18.30;99.90;;;;;;5067387;28;20132;-64
2022/07/03 07:04:46;;;;;;;5.32;1.48;;;18.30;99.90;;;;;;5067172;28;20044;-64
2022/07/03 07:07:12;;;;;;;3.50;1.45;;;18.40;99.90;;;;;;5068472;28;20550;-65
2022/07/03 07:09:38;;;;;;;3.22;1.52;;;18.40;99.90;;;;;;5067031;28;20059;-64
2022/07/03 07:12:04;;;;;;;5.53;1.38;;;18.60;99.90;;;;;;5067619;28;20052;-64
2022/07/03 07:14:29;;;;;;;1.75;1.30;;;18.70;99.90;;;;;;5068315;28;20060;-65
2022/07/03 07:16:55;;;;;;;2.35;1.20;;;19.00;99.90;;;;;;5068249;28;20044;-64
2022/07/03 07:19:21;;;;;;;1.83;1.05;;;18.80;99.90;;;;;;5067504;28;20045;-65
2022/07/03 07:21:46;;;;;;;0.95;0.93;;;18.70;99.90;;;;;;5068274;28;20040;-64
2022/07/03 07:24:12;;;;;;;1.65;1.10;;;18.70;99.90;;;;;;5070601;28;20555;-65
2022/07/03 07:26:38;;;;;;;1.73;0.98;;;18.70;99.90;;;;;;5068835;28;20040;-64
2022/07/03 07:29:03;;;;;;;2.47;1.27;;;18.70;99.90;;;;;;5069137;28;20403;-65
2022/07/03 07:31:29;;;;;;;1.98;1.13;;;18.70;99.90;;;;;;5069731;28;20044;-65
2022/07/03 07:33:54;;;;;;;4.28;1.48;;;18.60;99.90;;;;;;5065639;28;20052;-64
2022/07/03 07:36:20;;;;;;;1.90;1.20;;;18.70;99.90;;;;;;5066826;28;20052;-64
2022/07/03 07:38:46;;;;;;;1.67;1.55;;;18.80;99.90;;;;;;5067966;28;20495;-64
2022/07/03 07:41:12;;;;;;;2.70;1.08;;;18.90;99.90;;;;;;5067584;28;20045;-64
2022/07/03 07:43:37;;;;;;;1.88;1.20;;;19.00;99.90;;;;;;5067737;28;20050;-64
2022/07/03 07:46:03;;;;;;;2.20;1.20;;;19.10;99.90;;;;;;5067468;28;20506;-64
2022/07/03 07:48:29;;;;;;;2.05;1.10;;;19.20;99.90;;;;;;5067478;28;20040;-64
2022/07/03 07:50:55;;;;;;;2.35;1.05;;;19.30;99.90;;;;;;5067180;28;20057;-64
2022/07/03 07:53:21;;;;;;;3.47;1.13;;;19.40;99.90;;;;;;5067135;28;20040;-64
2022/07/03 07:55:46;;;;;;;3.88;0.90;;;19.60;99.90;;;;;;5067314;28;20052;-64
2022/07/03 07:58:12;;;;;;;1.67;0.68;;;19.60;99.90;;;;;;5066514;28;20056;-65
2022/07/03 08:05:35;;;;;;;1.35;0.90;;;19.80;99.90;;;;;;5066569;28;20171;-64
2022/07/03 08:06:07;;;;;;;2.13;0.40;;;19.60;99.90;;;;;;5067482;28;20052;-65
2022/07/03 08:08:33;;;;;;;4.45;0.90;;;19.70;99.90;;;;;;5066321;28;20048;-64
2022/07/03 08:10:58;;;;;;;1.60;0.50;;;19.80;99.90;;;;;;5066834;28;20429;-65
2022/07/03 08:13:24;;;;;;;1.85;0.70;;;20.10;99.90;;;;;;5066004;28;20044;-64
2022/07/03 08:15:50;;;;;;;1.05;0.47;;;20.10;99.90;;;;;;5065860;28;20041;-64
2022/07/03 08:18:16;;;;;;;2.15;0.73;;;20.30;99.90;;;;;;5067575;28;20040;-64
2022/07/03 08:20:41;;;;;;;1.40;0.60;;;20.30;99.90;;;;;;5065372;28;20048;-64
2022/07/03 08:23:07;;;;;;;1.15;0.73;;;20.40;99.90;;;;;;5066061;28;20098;-65
2022/07/03 08:25:33;;;;;;;2.67;0.50;;;20.40;99.90;;;;;;5065673;28;20506;-64
2022/07/03 08:27:59;;;;;;;2.65;0.40;;;20.50;99.90;;;;;;5066816;28;20448;-64
2022/07/03 08:30:25;;;;;;;0.65;0.57;;;20.60;99.90;;;;;;5066002;28;20096;-64
2022/07/03 08:32:54;;;;;;;2.72;0.82;;;20.60;99.90;;;;;;5066971;28;20051;-65
2022/07/03 08:35:19;;;;;;;1.65;0.60;;;20.70;99.90;;;;;;5065848;28;20103;-65
2022/07/03 08:37:47;;;;;;;2.78;1.00;;;20.70;99.90;;;;;;5065273;28;20087;-65
2022/07/03 08:40:14;;;;;;;1.15;0.60;;;20.80;99.90;;;;;;5067336;28;20048;-64
2022/07/03 08:43:03;;;;;;;1.25;0.60;;;20.80;99.90;;;;;;5065668;28;20440;-65
2022/07/03 08:45:30;;;;;;;2.35;0.70;;;20.80;99.90;;;;;;5066719;28;20384;-64
2022/07/03 08:47:58;;;;;;;1.10;0.77;;;20.90;99.90;;;;;;5066522;28;20419;-65
2022/07/03 08:50:25;;;;;;;3.15;0.80;;;20.90;99.90;;;;;;5064213;28;20044;-65
2022/07/03 08:52:51;;;;;;;1.42;0.77;;;21.00;99.90;;;;;;5066154;28;20044;-64
2022/07/03 08:55:18;;;;;;;3.05;0.65;;;21.10;99.90;;;;;;5066296;28;20091;-65
2022/07/03 08:57:47;;;;;;;0.65;0.35;;;21.10;99.90;;;;;;5065928;28;20044;-64
2022/07/03 09:00:15;;;;;;;0.70;0.40;;;21.20;99.90;;;;;;5066849;28;20529;-64
2022/07/03 09:02:44;;;;;;;1.67;0.60;;;21.20;99.90;;;;;;5066942;28;20052;-65
2022/07/03 09:05:14;;;;;;;2.33;0.73;;;21.30;99.90;;;;;;5065289;28;20098;-65
2022/07/03 09:07:41;;;;;;;2.60;0.55;;;21.30;99.90;;;;;;5066098;28;20357;-64
2022/07/03 09:10:09;;;;;;;0.65;0.38;;;21.40;99.90;;;;;;5065526;28;20087;-65
2022/07/03 09:12:35;;;;;;;1.35;0.47;;;21.50;99.90;;;;;;5065518;28;20098;-64
2022/07/03 09:15:04;;;;;;;1.65;1.05;;;21.60;99.90;;;;;;5065818;28;20131;-64
2022/07/03 09:17:31;;;;;;;1.55;0.43;;;21.70;99.90;;;;;;5065976;28;20047;-64
2022/07/03 09:20:03;;;;;;;1.77;0.75;;;21.80;99.90;;;;;;5064940;28;20563;-64
2022/07/03 09:22:33;;;;;;;2.30;0.70;;;22.20;99.90;;;;;;5065845;28;20048;-64
2022/07/03 09:25:16;;;;;;;0.93;0.47;;;21.90;99.90;;;;;;5065347;28;20060;-64
2022/07/03 09:27:52;;;;;;;1.05;0.52;;;22.00;99.90;;;;;;5066663;28;20430;-65
2022/07/03 09:30:18;;;;;;;0.95;0.60;;;22.00;99.90;;;;;;5065717;28;20101;-65
2022/07/03 09:32:47;;;;;;;1.70;0.65;;;22.10;99.90;;;;;;5066047;28;20041;-65
2022/07/03 09:35:19;;;;;;;0.63;0.50;;;22.20;99.90;;;;;;5066304;28;20075;-65
2022/07/03 09:38:03;;;;;;;1.65;0.60;;;22.10;99.90;;;;;;5066453;28;20086;-65
2022/07/03 09:40:48;;;;;;;2.00;0.90;;;22.30;99.90;;;;;;5063800;28;20056;-65
2022/07/03 09:43:13;;;;;;;3.80;0.57;;;22.00;99.90;;;;;;5065103;28;20071;-64
2022/07/03 09:45:57;;;;;;;0.70;0.40;;;21.90;99.90;;;;;;5065442;28;20048;-65
2022/07/03 09:48:23;;;;;;;0.60;0.38;;;21.90;99.90;;;;;;5065995;28;20067;-65
2022/07/03 09:50:49;;;;;;;2.90;0.70;;;22.00;99.90;;;;;;5065365;28;20041;-65
2022/07/03 09:53:14;;;;;;;1.73;0.63;;;22.10;99.90;;;;;;5065947;28;20120;-65
2022/07/03 09:55:40;;;;;;;1.73;0.73;;;22.30;99.90;;;;;;5065630;28;20072;-65
2022/07/03 09:58:06;;;;;;;3.03;0.98;;;22.30;99.90;;;;;;5064993;28;20255;-65
2022/07/03 10:00:34;;;;;;;1.88;0.60;;;22.20;99.90;;;;;;5063490;28;20415;-65
2022/07/03 10:03:12;;;;;;;2.22;0.65;;;22.10;99.90;;;;;;5065223;28;20496;-65
2022/07/03 10:05:37;;;;;;;2.67;0.57;;;21.90;99.90;;;;;;5065625;28;20048;-64
2022/07/03 10:08:08;;;;;;;1.35;0.47;;;22.00;99.90;;;;;;5064580;28;20048;-65
2022/07/03 10:10:36;;;;;;;2.83;0.73;;;22.10;99.90;;;;;;5065118;28;20040;-65
2022/07/03 10:13:02;;;;;;;1.77;0.52;;;22.20;99.90;;;;;;5065459;28;20407;-64
2022/07/03 10:15:31;;;;;;;2.78;0.60;;;22.30;99.90;;;;;;5064888;28;20578;-65
2022/07/03 10:17:59;;;;;;;1.38;0.55;;;22.40;99.90;;;;;;5065297;28;20105;-65
2022/07/03 10:20:51;;;;;;;1.83;0.80;;;22.70;99.90;;;;;;5065537;28;20039;-64
2022/07/03 10:23:21;;;;;;;2.03;0.45;;;22.80;99.90;;;;;;5061994;28;20059;-64
2022/07/03 10:25:48;;;;;;;1.20;0.60;;;22.90;99.90;;;;;;5065221;28;20083;-65
2022/07/03 10:28:15;;;;;;;0.80;0.50;;;22.80;99.90;;;;;;5064148;28;20044;-64
2022/07/03 10:30:46;;;;;;;1.95;0.98;;;23.00;99.90;;;;;;5065656;28;20399;-65
2022/07/03 10:33:12;;;;;;;3.00;0.40;;;22.90;99.90;;;;;;5065861;28;20040;-65
2022/07/03 10:35:41;;;;;;;1.13;0.60;;;22.90;99.90;;;;;;5063282;28;20120;-65
2022/07/03 10:38:33;;;;;;;2.65;0.70;;;22.90;99.90;;;;;;5065096;28;20052;-65
2022/07/03 10:46:39;;;;;;;2.50;0.80;;;23.00;99.90;;;;;;5068990;28;20048;-65
2022/07/03 10:49:10;;;;;;;0.40;0.40;;;23.00;99.90;;;;;;5068175;28;20442;-65
2022/07/03 10:51:44;;;;;;;1.52;0.57;;;23.10;99.90;;;;;;5068946;28;20230;-64
2022/07/03 10:54:14;;;;;;;3.00;0.75;;;22.50;99.90;;;;;;5068276;28;20127;-65
2022/07/03 10:57:17;;;;;;;2.15;0.50;;;22.30;99.90;;;;;;5068228;28;20040;-65
2022/07/03 10:59:46;;;;;;;1.88;0.60;;;22.30;99.90;;;;;;5036936;28;20057;-64
2022/07/03 11:02:38;;;;;;;1.60;0.52;;;22.40;99.90;;;;;;5069223;28;20457;-64
2022/07/03 11:05:09;;;;;;;1.75;0.63;;;22.40;99.90;;;;;;5067642;28;20518;-64
2022/07/03 11:07:50;;;;;;;3.67;1.00;;;22.40;99.90;;;;;;5067075;28;20465;-65
2022/07/03 11:10:19;;;;;;;4.30;1.60;;;22.40;99.90;;;;;;5067917;28;20062;-65
2022/07/03 11:13:23;;;;;;;3.25;1.08;;;22.40;99.90;;;;;;5069278;28;20393;-65
2022/07/03 11:15:51;;;;;;;2.50;0.77;;;22.40;99.90;;;;;;5054654;28;20395;-65
2022/07/03 11:18:32;;;;;;;3.42;0.88;;;22.50;99.90;;;;;;5067512;28;20044;-65
2022/07/03 11:21:21;;;;;;;3.63;1.13;;;22.60;99.90;;;;;;5067954;28;20048;-65
2022/07/03 11:24:30;;;;;;;6.00;1.42;;;22.70;99.90;;;;;;5068146;28;20045;-64
2022/07/03 11:27:19;;;;;;;6.40;1.50;;;22.50;99.90;;;;;;5059081;28;20561;-65
2022/07/03 11:29:54;;;;;;;7.97;1.35;;;22.40;99.90;;;;;;5068564;28;20045;-65
2022/07/03 11:32:47;;;;;;;4.25;0.90;;;22.40;99.90;;;;;;5067770;28;20045;-65
2022/07/03 11:35:48;;;;;;;2.08;1.10;;;22.30;99.90;;;;;;5068687;28;20117;-64
2022/07/03 11:38:31;;;;;;;7.30;1.50;;;22.20;99.90;;;;;;5068623;28;20040;-64
2022/07/03 11:40:59;;;;;;;3.75;1.73;;;22.20;99.90;;;;;;5066127;28;20093;-65
2022/07/03 11:43:25;;;;;;;4.05;1.40;;;22.40;99.90;;;;;;5066448;28;20048;-65
2022/07/03 11:45:51;;;;;;;3.63;1.08;;;22.70;99.90;;;;;;5067087;28;20044;-65
2022/07/03 11:48:19;;;;;;;4.60;0.93;;;22.80;99.90;;;;;;5067652;28;20041;-65
2022/07/03 11:50:47;;;;;;;1.63;1.23;;;22.80;99.90;;;;;;5067928;28;20429;-65
2022/07/03 11:53:20;;;;;;;3.65;1.25;;;22.60;99.90;;;;;;5067622;28;20036;-65
2022/07/03 11:55:54;;;;;;;3.42;1.50;;;22.40;99.90;;;;;;5065547;28;20135;-65
2022/07/03 11:58:21;;;;;;;5.97;1.63;;;22.20;99.90;;;;;;5067485;28;20048;-65
2022/07/03 12:00:47;;;;;;;2.08;1.10;;;22.10;99.90;;;;;;5066853;28;20052;-65
2022/07/03 12:03:26;;;;;;;4.25;1.00;;;22.00;99.90;;;;;;5068153;28;20049;-65
2022/07/03 12:05:57;;;;;;;4.63;1.20;;;22.00;99.90;;;;;;5065817;28;20062;-64
2022/07/03 12:08:24;;;;;;;3.57;1.10;;;22.00;99.90;;;;;;5066926;28;20064;-64
2022/07/03 12:10:50;;;;;;;3.75;1.13;;;22.20;99.90;;;;;;5065479;28;20048;-65
2022/07/03 12:13:20;;;;;;;8.38;1.27;;;22.30;99.90;;;;;;5067554;28;20395;-64
2022/07/03 12:15:47;;;;;;;4.57;1.40;;;22.60;99.90;;;;;;5066549;28;20083;-65
2022/07/03 12:18:14;;;;;;;4.68;1.17;;;22.90;99.90;;;;;;5067738;28;20395;-65
2022/07/03 12:20:39;;;;;;;2.85;0.98;;;23.10;99.90;;;;;;5066429;28;20045;-64
2022/07/03 12:23:05;;;;;;;3.47;1.08;;;23.30;99.90;;;;;;5066877;28;20089;-65
2022/07/03 12:25:30;;;;;;;3.22;1.10;;;23.50;99.90;;;;;;5066925;28;20629;-65
2022/07/03 12:27:56;;;;;;;5.72;1.20;;;23.50;99.90;;;;;;5065758;28;20473;-65
2022/07/03 12:30:25;;;;;;;5.10;0.80;;;23.40;99.90;;;;;;5066840;28;20055;-65
2022/07/03 12:32:51;;;;;;;2.70;1.00;;;23.20;99.90;;;;;;5066708;28;20048;-65
2022/07/03 12:35:21;;;;;;;3.92;0.90;;;22.90;99.90;;;;;;5064993;28;20522;-65
2022/07/03 12:37:47;;;;;;;6.75;1.10;;;22.70;99.90;;;;;;5065026;28;20048;-65
2022/07/03 12:40:13;;;;;;;1.58;0.73;;;22.60;99.90;;;;;;5067259;28;20124;-65
2022/07/03 12:42:58;;;;;;;4.65;1.35;;;22.50;99.90;;;;;;5065990;28;20052;-65
2022/07/03 12:45:27;;;;;;;1.85;0.85;;;22.50;99.90;;;;;;5065399;28;20106;-64
2022/07/03 12:48:03;;;;;;;1.08;0.63;;;22.50;99.90;;;;;;5066240;28;20079;-65
2022/07/03 12:50:54;;;;;;;3.53;1.15;;;22.70;99.90;;;;;;5066288;28;20044;-65
2022/07/03 12:53:32;;;;;;;7.10;1.05;;;23.20;99.90;;;;;;5066538;28;20045;-65
2022/07/03 12:56:02;;;;;;;1.83;1.08;;;23.30;99.90;;;;;;5065496;28;20047;-65
2022/07/03 13:01:27;;;;;;;1.95;0.93;;;23.40;99.90;;;;;;5067021;28;20052;-64
2022/07/03 13:03:53;;;;;;;1.70;0.80;;;23.30;99.90;;;;;;5065277;28;20041;-65
2022/07/03 13:06:21;;;;;;;1.33;0.65;;;23.30;99.90;;;;;;5066271;28;20042;-65
2022/07/03 13:08:58;;;;;;;2.22;1.00;;;23.20;99.90;;;;;;5065948;28;20098;-64
2022/07/03 13:11:37;;;;;;;1.30;0.70;;;23.00;99.90;;;;;;5065710;28;20414;-65
2022/07/03 13:14:14;;;;;;;2.35;0.65;;;22.70;99.90;;;;;;5066371;28;20056;-65
2022/07/03 13:16:49;;;;;;;2.05;0.80;;;22.40;99.90;;;;;;5066243;28;20094;-65
2022/07/03 13:19:17;;;;;;;3.03;0.52;;;23.00;99.90;;;;;;5066322;28;20491;-65